Partenope — ICCZ — position and weather

sailwx.info

Track history (hours):
 
Tides and Currents Weather Stations Pressure Air Temp Water Temp Dewpoint Dewpoint Depression Visibility Wind Speed Wind Dir Waves Ship Positions

Partenope

Last reported at 2015-Mar-01 17:33 UTC. Time now 2015-Mar-01 20:59 UTC.
Position N 40°50' E 014°16'.

Length 186 m; draft 6.2 m.

Type: Ship (hazmat cat A). MMSI: 247060500.

Date/timePositionNaut miles runAvg speedWind from/ knotsBaromVisibWave heightAir tempDewpointWater temp
2015-Mar-01 17:33N 40°50' E 014°16'0 0.0
2015-Mar-01 14:13N 40°50' E 014°16'0 0.0
2015-Mar-01 13:33N 40°50' E 014°16'0 0.0
2015-Mar-01 12:31N 40°50' E 014°16'0 0.3
2015-Mar-01 11:14N 40°50' E 014°16'1116.2
2015-Mar-01 10:33N 40°39' E 014°16'1919.4
2015-Mar-01 09:33N 40°21' E 014°27'4 0.1
2015-Feb-27 22:11N 40°18' E 014°25'1219.7
2015-Feb-27 21:34N 40°30' E 014°19'2019.7
2015-Feb-27 20:33N 40°49' E 014°17'1 0.3
2015-Feb-27 15:15N 40°50' E 014°16'0 0.0
2015-Feb-27 13:04N 40°50' E 014°16'1 0.5
2015-Feb-27 10:33N 40°50' E 014°17'2019.1
2015-Feb-27 09:32N 40°30' E 014°19'2120.0
2015-Feb-27 08:30N 40°11' E 014°31'4 0.1
2015-Feb-25 22:17N 40°14' E 014°29'1419.5
2015-Feb-25 21:33N 40°27' E 014°21'1919.1
2015-Feb-25 20:34N 40°46' E 014°17'4 1.1
2015-Feb-25 16:30N 40°50' E 014°16'0 0.0
2015-Feb-25 14:16N 40°50' E 014°16'0 0.0
2015-Feb-25 10:30N 40°50' E 014°16'0 0.0
2015-Feb-25 09:04N 40°50' E 014°16'0 0.0
2015-Feb-24 21:12N 40°50' E 014°16'0 0.0
2015-Feb-24 18:03N 40°50' E 014°16'1 0.1
2015-Feb-24 10:33N 40°50' E 014°16'1918.9
2015-Feb-24 09:32N 40°31' E 014°19'  
2015-Feb-19 22:03N 40°21' E 014°24'1119.7
2015-Feb-19 21:30N 40°31' E 014°19'1919.8
2015-Feb-19 20:33N 40°50' E 014°17'  
Track history (hours):
 
Tides and Currents Weather Stations Pressure Air Temp Water Temp Dewpoint Dewpoint Depression Visibility Wind Speed Wind Dir Waves Ship Positions

Partenope

Last reported at 2015-Mar-01 17:33 UTC. Time now 2015-Mar-01 20:59 UTC.
Position N 40°50' E 014°16'.

Length 186 m; draft 6.2 m.

Type: Ship (hazmat cat A). MMSI: 247060500.

Date/timePositionNaut miles runAvg speedWind from/ knotsBaromVisibWave heightAir tempDewpointWater temp
2015-Mar-01 17:33N 40°50' E 014°16'0 0.0
2015-Mar-01 14:13N 40°50' E 014°16'0 0.0
2015-Mar-01 13:33N 40°50' E 014°16'0 0.0
2015-Mar-01 12:31N 40°50' E 014°16'0 0.3
2015-Mar-01 11:14N 40°50' E 014°16'1116.2
2015-Mar-01 10:33N 40°39' E 014°16'1919.4
2015-Mar-01 09:33N 40°21' E 014°27'4 0.1
2015-Feb-27 22:11N 40°18' E 014°25'1219.7
2015-Feb-27 21:34N 40°30' E 014°19'2019.7
2015-Feb-27 20:33N 40°49' E 014°17'1 0.3
2015-Feb-27 15:15N 40°50' E 014°16'0 0.0
2015-Feb-27 13:04N 40°50' E 014°16'1 0.5
2015-Feb-27 10:33N 40°50' E 014°17'2019.1
2015-Feb-27 09:32N 40°30' E 014°19'2120.0
2015-Feb-27 08:30N 40°11' E 014°31'4 0.1
2015-Feb-25 22:17N 40°14' E 014°29'1419.5
2015-Feb-25 21:33N 40°27' E 014°21'1919.1
2015-Feb-25 20:34N 40°46' E 014°17'4 1.1
2015-Feb-25 16:30N 40°50' E 014°16'0 0.0
2015-Feb-25 14:16N 40°50' E 014°16'0 0.0
2015-Feb-25 10:30N 40°50' E 014°16'0 0.0
2015-Feb-25 09:04N 40°50' E 014°16'0 0.0
2015-Feb-24 21:12N 40°50' E 014°16'0 0.0
2015-Feb-24 18:03N 40°50' E 014°16'1 0.1
2015-Feb-24 10:33N 40°50' E 014°16'1918.9
2015-Feb-24 09:32N 40°31' E 014°19'  
2015-Feb-19 22:03N 40°21' E 014°24'1119.7
2015-Feb-19 21:30N 40°31' E 014°19'1919.8
2015-Feb-19 20:33N 40°50' E 014°17'  

Dump ship's entire track history